Terminal Aerodrome Forecast
Issued by NWS Cleveland, OH

Home | Current Version | Previous Version | Graphics & Text | Print | Product List | Glossary On
Versions: 1 2 3 4 5 6 7 8 9 10 11 12 13 14 15 16 17 18 19 20 21 22 23 24 25
000
FTUS41 KCLE 220536
TAFMFD
TAF
KMFD 220536Z 2206/2306 17008KT P6SM OVC050
     FM220800 14003KT 3SM BR OVC025
      TEMPO 2209/2213 1SM BR BKN006
     FM221500 10005KT 6SM HZ BKN035
     FM221700 08005KT P6SM BKN050
     FM222300 06010KT P6SM -SHRA OVC025=

USA.gov is the U.S. government's official web portal to all federal, state and local government web resources and services.